Time;durP1;ratioP1;P1;durP2;ratioP2;P2;SDS_P1;SDS_P2;PMS_P1;PMS_P2;Temp;Humidity;BMP_temperature;BMP_pressure;BME280_temperature;BME280_humidity;BME280_pressure;Samples;Min_cycle;Max_cycle;Signal;HPM_P1;HPM_P2
2020/12/06 00:01:35;;;;;;;8.45;2.35;;;14.90;69.60;;;;;;5032494;28;20017;-67
2020/12/06 00:04:03;;;;;;;16.15;2.65;;;14.90;69.80;;;;;;5032565;28;20124;-68
2020/12/06 00:06:30;;;;;;;9.55;2.33;;;14.90;69.80;;;;;;5032794;28;20386;-68
2020/12/06 00:08:56;;;;;;;12.75;2.63;;;14.90;69.60;;;;;;5032385;28;20017;-68
2020/12/06 00:11:21;;;;;;;12.10;2.30;;;14.90;69.70;;;;;;5032781;28;20036;-68
2020/12/06 00:13:47;;;;;;;11.82;2.80;;;14.90;69.60;;;;;;5032523;28;20107;-69
2020/12/06 00:16:17;;;;;;;12.68;2.55;;;14.90;69.40;;;;;;5033812;28;20084;-69
2020/12/06 00:18:44;;;;;;;16.10;2.58;;;14.90;69.40;;;;;;5036202;28;20072;-67
2020/12/06 00:21:14;;;;;;;10.65;1.95;;;14.90;69.40;;;;;;5036123;28;20022;-67
2020/12/06 00:23:40;;;;;;;12.07;2.35;;;15.00;69.40;;;;;;5035941;28;20039;-67
2020/12/06 00:26:05;;;;;;;8.32;1.92;;;15.00;69.40;;;;;;5035944;28;20092;-68
2020/12/06 00:28:31;;;;;;;12.75;2.42;;;15.00;69.40;;;;;;5036042;28;20377;-68
2020/12/06 00:30:57;;;;;;;12.15;2.85;;;14.90;69.50;;;;;;5035923;28;20025;-68
2020/12/06 00:33:23;;;;;;;11.45;2.38;;;14.90;69.50;;;;;;5035736;28;20056;-67
2020/12/06 00:35:48;;;;;;;11.95;2.22;;;14.90;69.60;;;;;;5036028;28;20021;-67
2020/12/06 00:38:14;;;;;;;11.30;3.08;;;14.90;69.60;;;;;;5035914;28;20049;-67
2020/12/06 00:40:40;;;;;;;14.68;2.25;;;14.90;69.60;;;;;;5035830;28;20067;-68
2020/12/06 00:43:05;;;;;;;12.73;2.75;;;14.90;69.70;;;;;;5035651;28;20044;-68
2020/12/06 00:45:31;;;;;;;11.10;2.28;;;14.90;69.80;;;;;;5035547;28;20083;-68
2020/12/06 00:47:57;;;;;;;11.50;2.10;;;14.90;69.80;;;;;;5035857;28;20025;-69
2020/12/06 00:50:22;;;;;;;12.25;2.42;;;14.90;69.70;;;;;;5035686;28;20025;-67
2020/12/06 00:52:48;;;;;;;11.30;2.72;;;14.90;69.60;;;;;;5035758;28;20108;-69
2020/12/06 00:55:14;;;;;;;14.43;2.13;;;14.90;69.50;;;;;;5035542;28;20022;-68
2020/12/06 00:57:39;;;;;;;13.50;2.38;;;14.90;69.60;;;;;;5035658;28;20026;-68
2020/12/06 01:00:09;;;;;;;11.18;2.33;;;14.90;69.50;;;;;;5035457;28;20071;-67
2020/12/06 01:02:34;;;;;;;12.57;2.25;;;14.90;69.40;;;;;;5035260;28;20026;-68
2020/12/06 01:05:00;;;;;;;8.45;2.00;;;14.90;69.20;;;;;;5035291;28;20032;-67
2020/12/06 01:07:26;;;;;;;7.90;2.20;;;14.90;69.10;;;;;;5035211;28;20485;-68
2020/12/06 01:09:52;;;;;;;11.70;2.40;;;14.90;69.00;;;;;;5034997;28;20025;-69
2020/12/06 01:12:18;;;;;;;5.93;1.67;;;14.90;68.90;;;;;;5035123;28;20025;-67
2020/12/06 01:14:44;;;;;;;10.20;2.25;;;14.90;69.20;;;;;;5034869;28;20026;-69
2020/12/06 01:17:10;;;;;;;7.68;1.70;;;14.90;69.40;;;;;;5035034;28;20018;-68
2020/12/06 01:19:35;;;;;;;11.23;2.10;;;14.90;69.20;;;;;;5035300;28;20032;-67
2020/12/06 01:22:01;;;;;;;10.90;2.78;;;14.90;69.20;;;;;;5035165;28;20040;-67
2020/12/06 01:24:27;;;;;;;7.75;2.17;;;14.90;69.30;;;;;;5035006;28;20534;-67
2020/12/06 01:26:52;;;;;;;9.23;2.15;;;14.90;69.20;;;;;;5034751;28;20029;-68
2020/12/06 01:29:18;;;;;;;9.15;2.00;;;14.90;69.00;;;;;;5034556;28;20045;-67
2020/12/06 01:31:48;;;;;;;8.60;2.10;;;14.90;68.80;;;;;;5033666;28;20037;-67
2020/12/06 01:34:14;;;;;;;10.73;2.75;;;14.90;68.80;;;;;;5034752;28;20025;-67
2020/12/06 01:36:40;;;;;;;10.80;2.50;;;14.90;68.30;;;;;;5034725;28;20029;-68
2020/12/06 01:39:06;;;;;;;10.43;2.33;;;14.90;68.30;;;;;;5034598;28;20362;-69
2020/12/06 01:41:32;;;;;;;11.35;2.08;;;14.90;68.20;;;;;;5034697;28;20041;-69
2020/12/06 01:43:58;;;;;;;12.43;2.40;;;14.90;68.20;;;;;;5034673;28;20029;-69
2020/12/06 01:46:25;;;;;;;9.23;2.08;;;14.90;68.70;;;;;;5034748;28;20033;-67
2020/12/06 01:48:52;;;;;;;11.15;2.60;;;14.90;68.40;;;;;;5034824;28;20486;-69
2020/12/06 01:51:19;;;;;;;9.27;2.10;;;14.90;68.20;;;;;;5034618;28;20059;-67
2020/12/06 01:53:47;;;;;;;14.10;2.53;;;14.90;68.20;;;;;;5034208;28;20531;-67
2020/12/06 01:56:13;;;;;;;11.48;2.42;;;14.80;68.20;;;;;;5034176;28;20037;-67
2020/12/06 01:58:39;;;;;;;12.00;2.58;;;14.90;68.30;;;;;;5032448;28;20033;-67
2020/12/06 02:01:07;;;;;;;11.88;2.13;;;14.90;68.20;;;;;;5031463;28;20415;-67
2020/12/06 02:03:33;;;;;;;9.88;2.22;;;14.90;68.30;;;;;;5031494;28;20049;-67
2020/12/06 02:05:59;;;;;;;9.60;2.25;;;14.80;68.10;;;;;;5033687;28;20033;-68
2020/12/06 02:08:24;;;;;;;9.95;2.33;;;14.80;68.80;;;;;;5034004;28;20033;-68
2020/12/06 02:10:50;;;;;;;10.23;2.13;;;14.90;67.70;;;;;;5033951;28;20060;-68
2020/12/06 02:13:16;;;;;;;10.07;2.15;;;14.90;67.60;;;;;;5033789;28;20489;-68
2020/12/06 02:15:41;;;;;;;7.65;2.10;;;14.90;67.70;;;;;;5034042;28;20053;-67
2020/12/06 02:18:07;;;;;;;6.80;1.85;;;14.90;67.80;;;;;;5033756;28;20049;-67
2020/12/06 02:20:33;;;;;;;7.78;2.90;;;14.80;67.40;;;;;;5033642;28;20029;-68
2020/12/06 02:22:58;;;;;;;9.82;2.38;;;14.80;67.10;;;;;;5033800;28;20044;-69
2020/12/06 02:25:25;;;;;;;7.78;2.20;;;14.90;67.90;;;;;;5033504;28;20418;-69
2020/12/06 02:27:51;;;;;;;8.32;2.20;;;14.80;68.90;;;;;;5033386;28;20036;-67
2020/12/06 02:30:16;;;;;;;8.30;2.40;;;14.80;69.70;;;;;;5033738;28;20071;-67
2020/12/06 02:32:42;;;;;;;9.88;2.22;;;14.70;71.10;;;;;;5033536;28;20040;-67
2020/12/06 02:35:07;;;;;;;11.48;2.50;;;14.70;71.60;;;;;;5033522;28;20426;-68
2020/12/06 02:37:34;;;;;;;15.75;2.30;;;14.60;72.00;;;;;;5033258;28;20033;-67
2020/12/06 02:39:59;;;;;;;9.25;2.05;;;14.60;73.20;;;;;;5032911;28;20033;-69
2020/12/06 02:42:25;;;;;;;9.65;2.30;;;14.50;73.30;;;;;;5033319;28;20033;-67
2020/12/06 02:44:51;;;;;;;7.40;2.63;;;14.40;74.10;;;;;;5032773;28;20037;-67
2020/12/06 02:47:16;;;;;;;9.52;2.70;;;14.40;74.40;;;;;;5033244;28;20125;-67
2020/12/06 02:49:42;;;;;;;11.30;2.60;;;14.30;74.40;;;;;;5033365;28;20030;-67
2020/12/06 02:52:08;;;;;;;8.82;2.25;;;14.30;74.50;;;;;;5032882;28;20026;-67
2020/12/06 02:54:34;;;;;;;10.00;2.67;;;14.30;74.40;;;;;;5033117;28;20025;-67
2020/12/06 02:57:00;;;;;;;5.78;1.88;;;14.20;74.70;;;;;;5032932;28;20414;-67
2020/12/06 02:59:26;;;;;;;9.98;2.17;;;14.20;74.20;;;;;;5033139;28;20037;-67
2020/12/06 03:01:51;;;;;;;8.35;2.00;;;14.20;74.30;;;;;;5033469;28;20116;-68
2020/12/06 03:04:17;;;;;;;10.80;1.85;;;14.20;73.40;;;;;;5033020;28;20470;-67
2020/12/06 03:06:43;;;;;;;7.68;1.90;;;14.20;73.20;;;;;;5033239;28;20029;-67
2020/12/06 03:09:08;;;;;;;7.55;2.05;;;14.20;72.80;;;;;;5033076;28;20084;-68
2020/12/06 03:11:34;;;;;;;10.80;1.90;;;14.20;72.70;;;;;;5033181;28;20037;-68
2020/12/06 03:14:00;;;;;;;7.20;2.00;;;14.20;72.80;;;;;;5033048;28;20535;-67
2020/12/06 03:16:25;;;;;;;6.47;1.58;;;14.30;72.50;;;;;;5033297;28;20032;-68
2020/12/06 03:18:51;;;;;;;6.18;1.90;;;14.30;71.80;;;;;;5033006;28;20076;-68
2020/12/06 03:21:17;;;;;;;5.03;1.60;;;14.30;71.80;;;;;;5033081;28;20033;-67
2020/12/06 03:23:43;;;;;;;7.40;2.20;;;14.30;70.90;;;;;;5032982;28;20131;-67
2020/12/06 03:26:09;;;;;;;5.32;1.50;;;14.30;70.80;;;;;;5032874;28;20026;-68
2020/12/06 03:28:34;;;;;;;6.75;1.63;;;14.30;70.70;;;;;;5033039;28;20037;-67
2020/12/06 03:31:00;;;;;;;9.93;1.80;;;14.40;70.60;;;;;;5033222;28;20037;-68
2020/12/06 03:33:26;;;;;;;8.07;1.67;;;14.40;70.40;;;;;;5033554;28;20033;-68
2020/12/06 03:35:51;;;;;;;7.50;1.83;;;14.40;70.10;;;;;;5032891;28;20029;-68
2020/12/06 03:38:17;;;;;;;5.13;1.58;;;14.40;70.50;;;;;;5033038;28;20526;-68
2020/12/06 03:40:43;;;;;;;6.93;1.70;;;14.40;70.10;;;;;;5032820;28;20482;-67
2020/12/06 03:43:08;;;;;;;12.00;2.40;;;14.40;69.90;;;;;;5032718;28;20108;-67
2020/12/06 03:45:34;;;;;;;5.15;1.70;;;14.50;69.70;;;;;;5032846;28;20033;-67
2020/12/06 03:48:00;;;;;;;6.60;1.55;;;14.50;69.60;;;;;;5032907;28;20022;-68
2020/12/06 03:50:26;;;;;;;5.15;1.50;;;14.50;69.60;;;;;;5034500;28;20105;-68
2020/12/06 03:52:51;;;;;;;9.45;1.90;;;14.50;69.00;;;;;;5036670;28;20030;-68
2020/12/06 03:55:17;;;;;;;4.65;1.48;;;14.50;68.80;;;;;;5036767;28;20060;-68
2020/12/06 03:57:43;;;;;;;6.90;1.40;;;14.60;68.40;;;;;;5036729;28;20037;-67
2020/12/06 04:00:09;;;;;;;7.28;1.92;;;14.60;68.00;;;;;;5036620;28;20474;-68
2020/12/06 04:02:35;;;;;;;7.10;1.65;;;14.60;68.10;;;;;;5036226;28;20037;-67
2020/12/06 04:05:01;;;;;;;6.35;1.83;;;14.60;67.90;;;;;;5036528;28;20025;-68
2020/12/06 04:07:26;;;;;;;9.05;1.80;;;14.60;67.80;;;;;;5036437;28;20509;-68
2020/12/06 04:09:52;;;;;;;8.27;1.85;;;14.60;67.80;;;;;;5036521;28;20021;-68
2020/12/06 04:12:18;;;;;;;6.18;1.73;;;14.60;67.70;;;;;;5036357;28;20162;-69
2020/12/06 04:14:43;;;;;;;8.80;1.90;;;14.60;67.40;;;;;;5036049;28;20018;-67
2020/12/06 04:17:09;;;;;;;6.65;1.60;;;14.60;67.20;;;;;;5035919;28;20044;-68
2020/12/06 04:19:35;;;;;;;5.70;1.77;;;14.60;66.80;;;;;;5036051;28;20033;-68
2020/12/06 04:22:05;;;;;;;7.78;1.90;;;14.60;66.70;;;;;;5036003;28;20025;-68
2020/12/06 04:24:34;;;;;;;5.43;1.63;;;14.70;66.60;;;;;;5036178;28;20119;-68
2020/12/06 04:27:00;;;;;;;8.77;1.90;;;14.70;65.90;;;;;;5035793;28;20022;-68
2020/12/06 04:29:26;;;;;;;10.80;2.00;;;14.70;65.60;;;;;;5036194;28;20490;-68
2020/12/06 04:31:52;;;;;;;6.38;2.53;;;14.70;65.80;;;;;;5036234;28;20079;-68
2020/12/06 04:34:18;;;;;;;7.43;2.17;;;14.70;65.40;;;;;;5036093;28;20030;-69
2020/12/06 04:36:43;;;;;;;5.55;1.77;;;14.70;65.00;;;;;;5035796;28;20053;-68
2020/12/06 04:39:09;;;;;;;6.07;2.00;;;14.70;65.00;;;;;;5036298;28;20033;-67
2020/12/06 04:41:35;;;;;;;7.93;2.25;;;14.70;64.60;;;;;;5035810;28;20033;-67
2020/12/06 04:44:01;;;;;;;5.30;1.73;;;14.70;64.80;;;;;;5035767;28;20041;-67
2020/12/06 04:46:35;;;;;;;6.97;1.70;;;14.70;64.20;;;;;;5036000;28;20021;-68
2020/12/06 04:49:21;;;;;;;6.95;2.20;;;14.80;64.10;;;;;;5035840;28;20057;-67
2020/12/06 04:51:53;;;;;;;6.10;1.90;;;14.80;63.90;;;;;;5035819;28;20026;-68
2020/12/06 04:54:20;;;;;;;4.97;1.70;;;14.80;63.70;;;;;;5035604;28;20033;-67
2020/12/06 04:56:50;;;;;;;4.53;1.60;;;14.80;63.70;;;;;;5035606;28;20029;-67
2020/12/06 04:59:19;;;;;;;3.17;1.45;;;14.70;63.60;;;;;;5035524;28;20501;-67
2020/12/06 05:01:48;;;;;;;4.95;1.92;;;14.80;63.80;;;;;;5034549;28;20113;-67
2020/12/06 05:04:15;;;;;;;4.38;1.40;;;14.70;63.90;;;;;;5035136;28;20403;-67
2020/12/06 05:06:43;;;;;;;4.53;1.60;;;14.80;64.20;;;;;;5035473;28;20032;-68
2020/12/06 05:09:11;;;;;;;5.75;1.67;;;14.70;63.90;;;;;;5035459;28;20499;-67
2020/12/06 05:11:39;;;;;;;4.78;1.60;;;14.70;64.20;;;;;;5035509;28;20025;-68
2020/12/06 05:14:08;;;;;;;7.93;1.80;;;14.70;65.20;;;;;;5035229;28;20410;-68
2020/12/06 05:16:35;;;;;;;5.47;1.90;;;14.70;66.10;;;;;;5035311;28;20350;-67
2020/12/06 05:19:02;;;;;;;4.97;1.75;;;14.70;67.20;;;;;;5034725;28;20046;-68
2020/12/06 05:21:38;;;;;;;5.65;1.80;;;14.60;66.70;;;;;;5035093;28;20101;-69
2020/12/06 05:24:05;;;;;;;5.28;1.77;;;14.60;67.20;;;;;;5035137;28;20029;-68
2020/12/06 05:26:31;;;;;;;8.27;1.90;;;14.50;66.40;;;;;;5035166;28;20025;-67
2020/12/06 05:28:58;;;;;;;9.77;2.30;;;14.60;65.70;;;;;;5034906;28;20079;-67
2020/12/06 05:31:25;;;;;;;7.10;1.85;;;14.60;65.80;;;;;;5035189;28;20028;-68
2020/12/06 05:33:51;;;;;;;3.85;1.45;;;14.60;65.10;;;;;;5035084;28;20025;-68
2020/12/06 05:36:17;;;;;;;4.72;1.50;;;14.60;64.60;;;;;;5034732;28;20024;-67
2020/12/06 05:38:43;;;;;;;5.60;1.92;;;14.60;64.50;;;;;;5034723;28;20021;-68
2020/12/06 05:41:10;;;;;;;6.50;1.73;;;14.60;64.30;;;;;;5034839;28;20071;-71
2020/12/06 05:43:37;;;;;;;3.63;1.45;;;14.70;65.00;;;;;;5034363;28;20402;-68
2020/12/06 05:46:10;;;;;;;8.85;1.83;;;14.70;66.30;;;;;;5034383;28;20034;-67
2020/12/06 05:48:38;;;;;;;7.65;1.88;;;14.60;67.80;;;;;;5034589;28;20033;-67
2020/12/06 05:51:04;;;;;;;7.60;2.33;;;14.60;68.80;;;;;;5034534;28;20100;-67
2020/12/06 05:53:31;;;;;;;6.40;2.08;;;14.50;70.40;;;;;;5034637;28;20108;-67
2020/12/06 05:56:09;;;;;;;6.13;1.92;;;14.40;71.40;;;;;;5034223;28;20363;-68
2020/12/06 05:58:35;;;;;;;8.07;1.88;;;14.30;71.80;;;;;;5034207;28;20036;-67
2020/12/06 06:01:01;;;;;;;5.40;1.70;;;14.30;72.80;;;;;;5034228;28;20022;-67
2020/12/06 06:03:29;;;;;;;11.30;2.10;;;14.20;73.40;;;;;;5034288;28;20437;-68
2020/12/06 06:05:56;;;;;;;9.65;2.17;;;14.20;74.20;;;;;;5034218;28;20474;-68
2020/12/06 06:08:26;;;;;;;4.88;1.90;;;14.10;74.60;;;;;;5033854;28;20032;-67
2020/12/06 06:11:21;;;;;;;7.13;2.30;;;14.00;75.70;;;;;;5033803;28;20026;-67
2020/12/06 06:13:55;;;;;;;8.75;2.70;;;13.90;76.50;;;;;;5032856;28;20037;-67
2020/12/06 06:16:23;;;;;;;7.80;2.30;;;13.80;77.30;;;;;;5034017;28;20033;-67
2020/12/06 06:18:50;;;;;;;6.93;2.70;;;13.80;77.50;;;;;;5033689;28;20517;-69
2020/12/06 06:21:19;;;;;;;7.38;2.90;;;13.60;78.70;;;;;;5033997;28;20040;-67
2020/12/06 06:23:47;;;;;;;7.72;2.55;;;13.60;79.20;;;;;;5033983;28;20371;-67
2020/12/06 06:26:16;;;;;;;7.80;2.70;;;13.50;79.60;;;;;;5033815;28;20029;-67
2020/12/06 06:28:44;;;;;;;10.50;2.85;;;13.50;80.40;;;;;;5033851;28;20029;-67
2020/12/06 06:31:11;;;;;;;11.68;3.45;;;13.50;80.10;;;;;;5033797;28;20384;-67
2020/12/06 06:33:39;;;;;;;12.30;4.18;;;13.40;81.10;;;;;;5033575;28;20030;-67
2020/12/06 06:36:07;;;;;;;11.98;4.15;;;13.30;82.10;;;;;;5033482;28;20021;-67
2020/12/06 06:38:44;;;;;;;10.52;3.28;;;13.30;83.00;;;;;;5033463;28;20034;-67
2020/12/06 06:41:11;;;;;;;12.82;3.78;;;13.20;83.90;;;;;;5033223;28;20022;-67
2020/12/06 06:43:41;;;;;;;11.23;5.15;;;13.10;84.20;;;;;;5033540;28;20043;-67
2020/12/06 06:46:12;;;;;;;13.30;4.93;;;13.10;85.00;;;;;;5033449;28;20048;-67
2020/12/06 06:48:38;;;;;;;14.23;3.67;;;13.10;85.40;;;;;;5033390;28;20021;-67
2020/12/06 06:51:04;;;;;;;10.02;3.42;;;13.10;85.60;;;;;;5033388;28;20381;-67
2020/12/06 06:53:30;;;;;;;14.13;4.13;;;13.00;86.30;;;;;;5033474;28;20025;-67
2020/12/06 06:56:01;;;;;;;10.80;3.67;;;13.00;86.30;;;;;;5033390;28;20092;-66
2020/12/06 06:58:30;;;;;;;10.60;2.97;;;12.90;86.20;;;;;;5033343;28;20026;-67
2020/12/06 07:01:19;;;;;;;9.63;3.03;;;12.80;85.40;;;;;;5033314;28;20044;-68
2020/12/06 07:03:55;;;;;;;5.47;2.40;;;12.80;85.40;;;;;;5032969;28;20521;-66
2020/12/06 07:06:44;;;;;;;12.63;3.35;;;12.80;85.10;;;;;;5033077;28;20022;-67
2020/12/06 07:09:11;;;;;;;6.70;2.53;;;12.90;85.70;;;;;;5033388;28;20021;-66
2020/12/06 07:11:39;;;;;;;6.03;2.50;;;12.80;84.80;;;;;;5033399;28;20033;-66
2020/12/06 07:14:04;;;;;;;11.32;3.08;;;12.90;84.80;;;;;;5033220;28;20068;-67
2020/12/06 07:16:30;;;;;;;6.30;3.08;;;12.80;85.10;;;;;;5033173;28;20423;-68
2020/12/06 07:18:56;;;;;;;9.43;3.03;;;12.80;85.00;;;;;;5032894;28;20150;-68
2020/12/06 07:21:21;;;;;;;10.68;2.65;;;12.70;85.20;;;;;;5032969;28;20029;-66
2020/12/06 07:23:47;;;;;;;14.32;2.70;;;12.70;85.00;;;;;;5032877;28;20068;-66
2020/12/06 07:26:13;;;;;;;5.18;2.47;;;12.60;85.00;;;;;;5038667;28;20064;-67
2020/12/06 07:28:38;;;;;;;8.88;2.40;;;12.60;85.10;;;;;;5039230;28;20025;-68
2020/12/06 07:31:04;;;;;;;9.05;2.90;;;12.50;85.20;;;;;;5039532;28;20386;-66
2020/12/06 07:33:30;;;;;;;6.07;2.40;;;12.60;84.90;;;;;;5039487;28;20052;-68
2020/12/06 07:35:55;;;;;;;6.47;2.65;;;12.50;85.00;;;;;;5039527;28;20099;-67
2020/12/06 07:38:21;;;;;;;8.20;2.60;;;12.50;85.10;;;;;;5039147;28;20026;-69
2020/12/06 07:40:47;;;;;;;4.65;2.60;;;12.40;85.40;;;;;;5039207;28;20025;-67
2020/12/06 07:43:14;;;;;;;8.05;2.53;;;12.40;85.60;;;;;;5039061;28;20478;-66
2020/12/06 07:45:40;;;;;;;4.88;2.40;;;12.30;85.70;;;;;;5039368;28;20029;-66
2020/12/06 07:48:06;;;;;;;7.00;2.90;;;12.30;85.70;;;;;;5039466;28;20432;-68
2020/12/06 07:50:32;;;;;;;6.90;2.78;;;12.30;86.30;;;;;;5039436;28;20025;-67
2020/12/06 07:53:02;;;;;;;12.10;4.00;;;12.20;86.00;;;;;;5039135;28;20010;-67
2020/12/06 07:55:28;;;;;;;8.82;3.30;;;12.20;86.30;;;;;;5041601;28;20025;-67
2020/12/06 07:57:57;;;;;;;7.60;3.38;;;12.20;86.40;;;;;;5047469;28;20422;-67
2020/12/06 08:00:28;;;;;;;6.50;3.20;;;12.20;86.70;;;;;;5048604;28;20021;-66
2020/12/06 08:03:04;;;;;;;7.10;2.92;;;12.10;86.60;;;;;;5047368;28;20076;-69
2020/12/06 08:05:36;;;;;;;7.65;3.28;;;12.20;86.80;;;;;;5047770;28;20028;-68
2020/12/06 08:08:03;;;;;;;5.03;2.95;;;12.20;86.70;;;;;;5047950;28;20478;-68
2020/12/06 08:10:30;;;;;;;7.00;3.17;;;12.20;86.90;;;;;;5047524;28;20028;-68
2020/12/06 08:12:56;;;;;;;7.43;3.08;;;12.10;86.90;;;;;;5036043;28;20386;-67
2020/12/06 08:15:26;;;;;;;8.93;3.28;;;12.10;87.00;;;;;;5034967;28;20113;-67
2020/12/06 08:17:53;;;;;;;11.63;3.63;;;12.10;87.50;;;;;;5036498;28;20060;-67
2020/12/06 08:20:21;;;;;;;6.13;3.30;;;12.10;87.20;;;;;;5038679;28;20386;-66
2020/12/06 08:22:58;;;;;;;8.30;2.85;;;12.10;87.10;;;;;;5038903;28;20029;-66
2020/12/06 08:25:26;;;;;;;7.57;2.78;;;12.10;87.10;;;;;;5041573;28;20478;-66
2020/12/06 08:27:53;;;;;;;3.65;1.88;;;12.10;87.20;;;;;;5047367;28;20491;-68
2020/12/06 08:30:21;;;;;;;5.88;2.33;;;12.10;86.90;;;;;;5047519;28;20021;-66
2020/12/06 08:32:54;;;;;;;6.30;2.40;;;12.10;86.90;;;;;;5046536;28;20055;-70
2020/12/06 08:35:20;;;;;;;6.38;2.80;;;12.10;87.10;;;;;;5046869;28;20066;-67
2020/12/06 08:37:46;;;;;;;5.50;2.42;;;12.10;87.00;;;;;;5043960;28;20036;-67
2020/12/06 08:40:12;;;;;;;4.50;2.40;;;12.10;86.70;;;;;;5041200;28;20029;-69
2020/12/06 08:42:38;;;;;;;5.63;2.78;;;12.10;86.60;;;;;;5038289;28;20030;-69
2020/12/06 08:45:04;;;;;;;3.80;2.58;;;12.10;86.80;;;;;;5039572;28;20033;-68
2020/12/06 08:47:42;;;;;;;4.93;2.78;;;12.10;87.00;;;;;;5039356;28;20029;-69
2020/12/06 08:50:10;;;;;;;4.80;2.35;;;12.00;87.10;;;;;;5037796;28;20040;-69
2020/12/06 08:52:36;;;;;;;4.55;2.20;;;12.00;87.10;;;;;;5038777;28;20067;-69
2020/12/06 08:55:36;;;;;;;4.38;2.28;;;12.10;87.20;;;;;;5040576;28;20025;-69
2020/12/06 08:58:02;;;;;;;4.65;2.80;;;12.10;87.30;;;;;;5041262;28;20021;-68
2020/12/06 09:00:28;;;;;;;4.93;1.98;;;12.00;87.60;;;;;;5041765;28;20025;-67
2020/12/06 09:02:59;;;;;;;3.65;2.22;;;12.10;87.80;;;;;;5043416;28;20370;-66
2020/12/06 09:05:24;;;;;;;3.55;2.17;;;12.10;87.90;;;;;;5041511;28;20018;-67
2020/12/06 09:07:50;;;;;;;5.03;2.58;;;12.20;87.70;;;;;;5041419;28;20056;-67
2020/12/06 09:10:16;;;;;;;5.28;2.88;;;12.20;87.60;;;;;;5042077;28;20025;-67
2020/12/06 09:12:42;;;;;;;4.90;2.20;;;12.20;87.30;;;;;;5041539;28;20044;-66
2020/12/06 09:15:07;;;;;;;6.47;2.70;;;12.30;86.90;;;;;;5055174;28;20057;-66
2020/12/06 09:17:34;;;;;;;3.28;2.30;;;12.30;87.00;;;;;;5054996;28;20052;-66
2020/12/06 09:20:00;;;;;;;6.63;2.60;;;12.30;87.00;;;;;;5054978;28;20123;-66
2020/12/06 09:22:26;;;;;;;2.97;1.95;;;12.20;87.00;;;;;;5055258;28;20159;-66
2020/12/06 09:24:52;;;;;;;4.25;2.53;;;12.20;87.20;;;;;;5054799;28;20530;-67
2020/12/06 09:27:17;;;;;;;3.95;2.13;;;12.30;87.10;;;;;;5054905;28;20382;-67
2020/12/06 09:29:43;;;;;;;3.60;2.30;;;12.20;87.30;;;;;;5054868;28;20108;-66
2020/12/06 09:32:09;;;;;;;6.05;2.35;;;12.30;87.30;;;;;;5054876;28;20021;-66
2020/12/06 09:34:34;;;;;;;3.30;2.13;;;12.30;87.30;;;;;;5051671;28;20460;-67
2020/12/06 09:37:00;;;;;;;3.60;1.77;;;12.30;87.40;;;;;;5047790;28;20037;-67
2020/12/06 09:39:26;;;;;;;4.90;2.00;;;12.30;87.40;;;;;;5039588;28;20017;-66
2020/12/06 09:41:51;;;;;;;3.95;2.22;;;12.30;87.30;;;;;;5042762;28;20043;-67
2020/12/06 09:44:17;;;;;;;3.35;1.65;;;12.40;87.20;;;;;;5043404;28;20083;-67
2020/12/06 09:46:43;;;;;;;4.85;2.17;;;12.40;87.10;;;;;;5043816;28;20032;-67
2020/12/06 09:49:09;;;;;;;4.50;2.28;;;12.40;87.10;;;;;;5043970;28;20021;-66
2020/12/06 09:51:34;;;;;;;3.88;1.77;;;12.40;87.20;;;;;;5041124;28;20017;-67
2020/12/06 09:54:02;;;;;;;2.70;1.98;;;12.40;87.40;;;;;;5043151;28;20376;-66
2020/12/06 09:56:29;;;;;;;4.18;1.90;;;12.40;87.50;;;;;;5041820;28;20108;-68
2020/12/06 09:58:55;;;;;;;2.95;1.85;;;12.40;87.60;;;;;;5041770;28;20029;-67
2020/12/06 10:01:23;;;;;;;3.28;1.88;;;12.40;87.60;;;;;;5038449;28;20040;-67
2020/12/06 10:03:49;;;;;;;3.65;1.98;;;12.40;87.40;;;;;;5039700;28;20040;-66
2020/12/06 10:06:15;;;;;;;3.75;2.10;;;12.40;87.20;;;;;;5042240;28;20022;-68
2020/12/06 10:08:40;;;;;;;3.83;2.13;;;12.40;87.10;;;;;;5043057;28;20033;-66
2020/12/06 10:11:06;;;;;;;4.68;2.40;;;12.50;87.00;;;;;;5040530;28;20541;-67
2020/12/06 10:13:32;;;;;;;3.00;2.13;;;12.40;87.10;;;;;;5041561;28;20029;-67
2020/12/06 10:15:57;;;;;;;5.22;2.58;;;12.50;87.30;;;;;;5041733;28;20082;-66
2020/12/06 10:18:23;;;;;;;3.13;2.15;;;12.40;87.40;;;;;;5042777;28;20094;-66
2020/12/06 10:20:49;;;;;;;3.67;2.05;;;12.40;87.50;;;;;;5041276;28;20454;-66
2020/12/06 10:23:14;;;;;;;3.03;2.00;;;12.50;87.40;;;;;;5041911;28;20021;-66
2020/12/06 10:25:40;;;;;;;3.10;1.83;;;12.50;87.40;;;;;;5042490;28;20025;-67
2020/12/06 10:28:05;;;;;;;3.55;2.40;;;12.50;87.50;;;;;;5040829;28;20079;-66
2020/12/06 10:30:31;;;;;;;10.68;6.75;;;12.50;87.40;;;;;;5041971;28;20044;-67
2020/12/06 10:32:57;;;;;;;6.55;2.78;;;12.50;87.50;;;;;;5041833;28;20096;-67
2020/12/06 10:35:23;;;;;;;5.22;2.22;;;12.50;87.80;;;;;;5052045;28;20029;-67
2020/12/06 10:37:48;;;;;;;2.88;2.10;;;12.50;87.90;;;;;;5053372;28;20056;-68
2020/12/06 10:40:14;;;;;;;3.83;2.28;;;12.40;87.80;;;;;;5053555;28;20032;-68
2020/12/06 10:42:40;;;;;;;4.35;2.70;;;12.50;87.90;;;;;;5051876;28;20025;-68
2020/12/06 10:45:05;;;;;;;6.05;3.10;;;12.50;87.80;;;;;;5053441;28;20067;-68
2020/12/06 10:47:31;;;;;;;6.00;2.53;;;12.40;87.80;;;;;;5053468;28;20381;-68
2020/12/06 10:49:57;;;;;;;3.92;1.98;;;12.50;88.40;;;;;;5053488;28;20032;-67
2020/12/06 10:52:22;;;;;;;2.97;1.70;;;12.40;87.70;;;;;;5053686;28;20107;-68
2020/12/06 10:54:51;;;;;;;3.97;1.85;;;12.40;87.70;;;;;;5053486;28;20024;-67
2020/12/06 10:57:17;;;;;;;3.83;1.80;;;12.40;87.60;;;;;;5053570;28;20039;-68
2020/12/06 10:59:43;;;;;;;4.15;1.92;;;12.40;87.80;;;;;;5052907;28;20021;-68
2020/12/06 11:02:09;;;;;;;2.97;1.80;;;12.40;87.80;;;;;;5053295;28;20059;-68
2020/12/06 11:04:34;;;;;;;4.57;2.17;;;12.40;87.90;;;;;;5053026;28;20037;-68
2020/12/06 11:07:00;;;;;;;2.55;1.80;;;12.40;88.00;;;;;;5053658;28;20017;-67
2020/12/06 11:09:26;;;;;;;3.78;2.20;;;12.30;88.00;;;;;;5053128;28;20021;-67
2020/12/06 11:11:52;;;;;;;4.43;2.20;;;12.30;88.10;;;;;;5053115;28;20025;-67
2020/12/06 11:14:18;;;;;;;3.60;2.15;;;12.30;88.00;;;;;;5053060;28;20143;-68
2020/12/06 11:16:44;;;;;;;3.53;2.25;;;12.30;88.20;;;;;;5053065;28;20112;-67
2020/12/06 11:19:10;;;;;;;3.13;2.10;;;12.30;88.40;;;;;;5052869;28;20052;-67
2020/12/06 11:21:36;;;;;;;4.80;2.10;;;12.30;88.60;;;;;;5053251;28;20025;-68
2020/12/06 11:24:02;;;;;;;4.15;2.50;;;12.30;88.60;;;;;;5052912;28;20037;-68
2020/12/06 11:26:27;;;;;;;3.60;2.42;;;12.20;88.70;;;;;;5052595;28;20049;-67
2020/12/06 11:28:53;;;;;;;6.90;2.45;;;12.20;88.90;;;;;;5053116;28;20037;-68
2020/12/06 11:31:19;;;;;;;4.13;2.40;;;12.20;89.30;;;;;;5052955;28;20029;-68
2020/12/06 11:33:44;;;;;;;4.30;2.58;;;12.20;89.20;;;;;;5052936;28;20385;-68
2020/12/06 11:36:11;;;;;;;8.70;2.88;;;12.20;89.40;;;;;;5052997;28;20033;-68
2020/12/06 11:38:37;;;;;;;4.18;2.50;;;12.20;89.40;;;;;;5051603;28;20469;-68
2020/12/06 11:41:04;;;;;;;5.05;2.55;;;12.20;89.20;;;;;;5052844;28;20524;-68
2020/12/06 11:43:30;;;;;;;9.43;5.57;;;12.20;89.20;;;;;;5052538;28;20048;-67
2020/12/06 11:45:56;;;;;;;9.48;6.82;;;12.20;89.20;;;;;;5052573;28;20029;-67
2020/12/06 11:48:22;;;;;;;6.85;4.35;;;12.20;89.20;;;;;;5053013;28;20025;-67
2020/12/06 11:50:48;;;;;;;8.55;4.60;;;12.20;89.20;;;;;;5052777;28;20079;-67
2020/12/06 11:53:13;;;;;;;8.35;3.83;;;12.20;89.10;;;;;;5052927;28;20052;-67
2020/12/06 11:55:40;;;;;;;10.57;4.57;;;12.10;89.30;;;;;;5052791;28;20108;-67
2020/12/06 11:58:06;;;;;;;2.88;1.85;;;12.10;89.60;;;;;;5051493;28;20070;-67
2020/12/06 12:00:31;;;;;;;2.50;1.65;;;12.00;89.20;;;;;;5049662;28;20541;-67
2020/12/06 12:02:57;;;;;;;2.90;1.70;;;12.00;88.60;;;;;;5050136;28;20037;-67
2020/12/06 12:05:23;;;;;;;8.15;1.90;;;12.00;88.50;;;;;;5052436;28;20032;-67
2020/12/06 12:07:48;;;;;;;4.43;1.80;;;12.00;88.40;;;;;;5052899;28;20147;-67
2020/12/06 12:10:16;;;;;;;7.10;1.50;;;12.00;88.70;;;;;;5052688;28;20032;-67
2020/12/06 12:12:42;;;;;;;7.82;2.83;;;11.90;88.50;;;;;;5054818;28;20115;-67
2020/12/06 12:15:08;;;;;;;8.48;2.50;;;12.00;88.50;;;;;;5056114;28;20511;-67
2020/12/06 12:17:34;;;;;;;8.35;2.53;;;11.90;88.50;;;;;;5056127;28;20033;-68
2020/12/06 12:20:04;;;;;;;6.57;2.92;;;11.90;88.30;;;;;;5055871;28;20371;-68
2020/12/06 12:22:30;;;;;;;4.75;1.50;;;11.90;88.50;;;;;;5056080;28;20025;-67
2020/12/06 12:24:56;;;;;;;2.78;1.33;;;11.90;87.70;;;;;;5052709;28;20118;-67
2020/12/06 12:27:21;;;;;;;4.50;1.60;;;11.80;87.60;;;;;;5053418;28;20027;-67
2020/12/06 12:29:47;;;;;;;7.38;3.72;;;11.80;87.50;;;;;;5054206;28;20021;-67
2020/12/06 12:32:13;;;;;;;12.48;5.22;;;11.80;87.60;;;;;;5055860;28;20028;-67
2020/12/06 12:34:38;;;;;;;9.85;6.15;;;11.80;87.90;;;;;;5055573;28;20071;-67
2020/12/06 12:37:04;;;;;;;4.85;3.22;;;11.80;88.20;;;;;;5055651;28;20461;-67
2020/12/06 12:39:30;;;;;;;4.88;2.55;;;11.70;88.10;;;;;;5055253;28;20021;-67
2020/12/06 12:41:56;;;;;;;5.38;2.80;;;11.70;88.10;;;;;;5055754;28;20017;-67
2020/12/06 12:44:27;;;;;;;9.07;2.15;;;11.70;88.20;;;;;;5055706;28;20060;-67